Weather at Merck/Upper Gwynedd Heliport

Public forecast

Using degrees Fahrenheit for public forecast. Weather courtesy of forecast.io.

Closest aviation weather report (METAR) to Merck/Upper Gwynedd Heliport

Closest report is Wings Field, 4.8 nm (8.8 km) S. Retrieved 2022/01/22 20:15 UTC (10 minutes ago):

KLOM 222015Z AUTO 27003KT 10SM CLR M02/M16 A3024 RMK AO2 T10151163

Closest aviation forecast (TAF) to Merck/Upper Gwynedd Heliport

Closest forecast is Northeast Philadelphia Airport, 14.8 nm (27.3 km) ESE. Retrieved 2022/01/22 18:36 UTC (2 hours ago):

TAF KPNE 221733Z 2218/2318 VRB03KT P6SM SCT200 FM230600 25005KT P6SM SCT200 FM231400 26009KT P6SM SCT120 BKN200